createdAt,value
2022-10-15T00:00:41.708Z,5.43
2022-10-15T00:03:08.475Z,5.85
2022-10-15T00:05:39.292Z,5.97
2022-10-15T00:08:07.833Z,6.60
2022-10-15T00:10:35.171Z,6.28
2022-10-15T00:15:30.103Z,6.68
2022-10-15T00:17:56.840Z,6.10
2022-10-15T00:20:23.536Z,5.63
2022-10-15T00:22:50.238Z,5.65
2022-10-15T00:25:16.905Z,5.80
2022-10-15T00:27:43.599Z,5.38
2022-10-15T00:30:10.875Z,5.82
2022-10-15T00:32:37.604Z,5.43
2022-10-15T00:35:04.697Z,5.80
2022-10-15T00:37:31.404Z,8.52
2022-10-15T00:39:58.161Z,9.20
2022-10-15T00:42:25.368Z,8.07
2022-10-15T00:44:57.725Z,7.55
2022-10-15T00:47:27.245Z,6.97
2022-10-15T00:50:00.139Z,6.55
2022-10-15T00:52:59.087Z,8.55
2022-10-15T00:55:28.578Z,7.03
2022-10-15T00:57:56.539Z,6.63
2022-10-15T01:00:23.354Z,6.93
2022-10-15T01:02:50.189Z,5.53
2022-10-15T01:05:18.455Z,6.20
2022-10-15T01:07:45.312Z,6.72
2022-10-15T01:10:12.854Z,6.18
2022-10-15T01:12:45.334Z,6.28
2022-10-15T01:15:50.496Z,6.40
2022-10-15T01:18:37.249Z,6.07
2022-10-15T01:21:21.948Z,8.23
2022-10-15T01:24:36.982Z,11.43
2022-10-15T01:27:36.325Z,7.47
2022-10-15T01:30:31.702Z,7.00
2022-10-15T01:33:08.075Z,6.63
2022-10-15T01:36:19.824Z,6.40
2022-10-15T01:38:49.711Z,6.43
2022-10-15T01:41:35.849Z,6.13
2022-10-15T01:44:17.899Z,6.40
2022-10-15T01:47:14.565Z,5.80
2022-10-15T01:49:44.364Z,6.40
2022-10-15T01:52:17.971Z,6.80
2022-10-15T01:54:47.545Z,6.03
2022-10-15T01:57:15.738Z,5.93
2022-10-15T01:59:43.813Z,6.38
2022-10-15T02:02:10.584Z,6.60
2022-10-15T02:04:37.330Z,6.57
2022-10-15T02:07:03.945Z,6.72
2022-10-15T02:10:02.715Z,7.00
2022-10-15T02:12:47.555Z,5.93
2022-10-15T02:15:21.656Z,6.35
2022-10-15T02:18:12.054Z,6.72
2022-10-15T02:20:57.934Z,5.63
2022-10-15T02:23:35.496Z,6.50
2022-10-15T02:26:06.709Z,6.70
2022-10-15T02:28:36.927Z,5.78
2022-10-15T02:31:05.686Z,6.38
2022-10-15T02:33:34.953Z,6.95
2022-10-15T02:36:02.078Z,6.60
2022-10-15T02:38:33.040Z,7.30
2022-10-15T02:41:00.834Z,7.43
2022-10-15T02:43:27.705Z,6.93
2022-10-15T02:45:54.409Z,6.00
2022-10-15T02:48:21.184Z,6.22
2022-10-15T02:50:47.907Z,6.75
2022-10-15T02:53:14.798Z,7.18
2022-10-15T02:55:41.560Z,6.57
2022-10-15T02:58:08.735Z,6.32
2022-10-15T03:00:35.502Z,6.60
2022-10-15T03:03:02.267Z,7.15
2022-10-15T03:05:29.163Z,6.90
2022-10-15T03:07:56.375Z,7.03
2022-10-15T03:10:23.148Z,5.63
2022-10-15T03:12:49.875Z,7.38
2022-10-15T03:15:16.904Z,7.22
2022-10-15T03:17:43.643Z,7.47
2022-10-15T03:20:10.463Z,7.00
2022-10-15T03:22:37.154Z,6.63
2022-10-15T03:25:04.374Z,6.88
2022-10-15T03:27:31.065Z,6.97
2022-10-15T03:29:57.708Z,6.25
2022-10-15T03:32:26.484Z,6.20
2022-10-15T03:34:53.232Z,6.70
2022-10-15T03:37:20.264Z,6.78
2022-10-15T03:39:47.208Z,6.35
2022-10-15T03:42:15.974Z,7.63
2022-10-15T03:44:42.771Z,7.28
2022-10-15T03:47:09.607Z,6.95
2022-10-15T03:49:36.342Z,6.82
2022-10-15T03:52:03.242Z,7.13
2022-10-15T03:54:29.939Z,7.13
2022-10-15T03:56:56.767Z,6.82
2022-10-15T03:59:23.526Z,7.07
2022-10-15T04:01:50.796Z,7.15
2022-10-15T04:04:26.520Z,7.13
2022-10-15T04:06:53.307Z,7.07
2022-10-15T04:09:20.112Z,7.50
2022-10-15T04:11:47.490Z,6.78
2022-10-15T04:14:14.298Z,6.75
2022-10-15T04:16:41.019Z,8.18
2022-10-15T04:19:10.286Z,8.57
2022-10-15T04:21:38.257Z,8.10
2022-10-15T04:24:05.496Z,7.43
2022-10-15T04:26:32.523Z,7.50
2022-10-15T04:28:59.355Z,6.28
2022-10-15T04:31:26.214Z,7.07
2022-10-15T04:33:53.290Z,7.22
2022-10-15T04:36:20.056Z,7.15
2022-10-15T04:38:46.792Z,6.70
2022-10-15T04:41:13.789Z,7.93
2022-10-15T04:43:40.839Z,8.05
2022-10-15T04:46:08.689Z,6.78
2022-10-15T04:48:38.989Z,8.13
2022-10-15T04:51:14.795Z,8.15
2022-10-15T04:53:45.204Z,7.90
2022-10-15T04:56:15.536Z,7.05
2022-10-15T04:58:43.036Z,7.53
2022-10-15T05:01:12.699Z,7.82
2022-10-15T05:03:44.156Z,7.85
2022-10-15T05:06:19.736Z,6.85
2022-10-15T05:08:47.201Z,7.18
2022-10-15T05:11:19.159Z,7.90
2022-10-15T05:13:46.617Z,7.82
2022-10-15T05:16:22.666Z,8.27
2022-10-15T05:18:52.530Z,7.38
2022-10-15T05:21:20.097Z,7.05
2022-10-15T05:23:47.448Z,7.63
2022-10-15T05:26:16.501Z,8.05
2022-10-15T05:28:43.281Z,7.97
2022-10-15T05:31:17.594Z,7.43
2022-10-15T05:33:45.792Z,7.60
2022-10-15T05:36:17.362Z,9.65
2022-10-15T05:38:50.076Z,12.40
2022-10-15T05:41:17.054Z,11.60
2022-10-15T05:43:47.577Z,10.25
2022-10-15T05:46:15.198Z,9.30
2022-10-15T05:48:41.894Z,9.23
2022-10-15T05:51:12.267Z,9.20
2022-10-15T05:53:39.806Z,10.00
2022-10-15T05:56:08.289Z,9.98
2022-10-15T05:58:37.538Z,9.07
2022-10-15T06:01:07.767Z,9.18
2022-10-15T06:03:35.438Z,8.00
2022-10-15T06:06:02.396Z,8.52
2022-10-15T06:08:30.858Z,8.90
2022-10-15T06:11:06.803Z,8.68
2022-10-15T06:13:38.192Z,8.70
2022-10-15T06:16:05.536Z,8.52
2022-10-15T06:18:32.529Z,9.52
2022-10-15T06:20:59.257Z,9.68
2022-10-15T06:23:26.056Z,9.90
2022-10-15T06:25:52.814Z,9.98
2022-10-15T06:28:19.803Z,10.90
2022-10-15T06:30:46.575Z,10.88
2022-10-15T06:33:13.560Z,10.68
2022-10-15T06:35:41.477Z,11.68
2022-10-15T06:38:09.013Z,11.20
2022-10-15T06:40:35.785Z,12.30
2022-10-15T06:43:12.658Z,13.38
2022-10-15T06:45:42.857Z,12.77
2022-10-15T06:48:09.820Z,13.85
2022-10-15T06:50:37.942Z,15.15
2022-10-15T06:53:05.868Z,13.80
2022-10-15T06:55:33.383Z,14.73
2022-10-15T06:58:00.625Z,14.52
2022-10-15T07:00:28.025Z,13.68
2022-10-15T07:02:55.327Z,17.00
2022-10-15T07:05:22.344Z,17.50
2022-10-15T07:07:56.387Z,17.05
2022-10-15T07:10:23.930Z,15.65
2022-10-15T07:12:50.798Z,14.98
2022-10-15T07:15:17.957Z,16.35
2022-10-15T07:17:52.337Z,16.15
2022-10-15T07:20:23.469Z,16.35
2022-10-15T07:22:55.933Z,18.27
2022-10-15T07:25:23.351Z,18.48
2022-10-15T07:27:50.247Z,18.95
2022-10-15T07:30:17.267Z,18.77
2022-10-15T07:32:46.336Z,19.60
2022-10-15T07:35:13.684Z,20.15
2022-10-15T07:37:40.986Z,17.38
2022-10-15T07:40:08.762Z,17.33
2022-10-15T07:42:35.619Z,17.98
2022-10-15T07:45:02.263Z,18.17
2022-10-15T07:47:29.103Z,18.27
2022-10-15T07:49:56.742Z,17.15
2022-10-15T07:52:23.708Z,18.52
2022-10-15T07:54:50.549Z,17.35
2022-10-15T07:57:18.233Z,17.90
2022-10-15T07:59:45.426Z,17.67
2022-10-15T08:02:19.367Z,19.38
2022-10-15T08:04:46.144Z,17.92
2022-10-15T08:07:13.100Z,19.48
2022-10-15T08:09:39.987Z,18.88
2022-10-15T08:12:07.227Z,19.08
2022-10-15T08:14:35.057Z,19.85
2022-10-15T08:17:03.338Z,20.10
2022-10-15T08:19:30.195Z,18.95
2022-10-15T08:21:58.749Z,20.05
2022-10-15T08:24:25.735Z,19.92
2022-10-15T08:26:52.548Z,17.88
2022-10-15T08:29:20.045Z,19.60
2022-10-15T08:31:46.933Z,19.48
2022-10-15T08:34:13.774Z,18.67
2022-10-15T08:36:40.906Z,20.08
2022-10-15T08:39:09.420Z,20.92
2022-10-15T08:41:41.724Z,19.35
2022-10-15T08:44:31.386Z,20.88
2022-10-15T08:47:40.479Z,20.08
2022-10-15T08:50:26.679Z,20.45
2022-10-15T08:52:56.120Z,20.65
2022-10-15T08:58:02.330Z,19.95
2022-10-15T09:00:41.757Z,20.95
2022-10-15T09:03:30.080Z,19.58
2022-10-15T09:06:06.127Z,19.05
2022-10-15T09:08:46.745Z,20.08
2022-10-15T09:11:43.109Z,18.90
2022-10-15T09:14:16.071Z,19.02
2022-10-15T09:16:46.397Z,18.70
2022-10-15T09:19:22.177Z,17.67
2022-10-15T09:21:51.128Z,19.23
2022-10-15T09:24:30.558Z,17.93
2022-10-15T09:27:26.156Z,18.38
2022-10-15T09:29:53.538Z,17.88
2022-10-15T09:32:31.653Z,17.13
2022-10-15T09:35:30.838Z,16.73
2022-10-15T09:38:22.342Z,17.58
2022-10-15T09:41:37.410Z,16.40
2022-10-15T09:44:11.114Z,19.05
2022-10-15T09:46:44.915Z,17.10
2022-10-15T09:49:36.226Z,16.63
2022-10-15T09:52:21.954Z,15.15
2022-10-15T09:55:00.495Z,15.00
2022-10-15T09:57:30.450Z,14.10
2022-10-15T10:00:03.278Z,14.52
2022-10-15T10:02:30.382Z,14.43
2022-10-15T10:04:57.662Z,14.77
2022-10-15T10:07:36.968Z,15.32
2022-10-15T10:10:25.947Z,14.93
2022-10-15T10:12:55.310Z,14.87
2022-10-15T10:15:22.286Z,15.85
2022-10-15T10:17:53.750Z,14.13
2022-10-15T10:20:22.948Z,13.45
2022-10-15T10:22:55.988Z,13.02
2022-10-15T10:25:31.736Z,13.15
2022-10-15T10:28:14.945Z,12.93
2022-10-15T10:31:00.435Z,11.13
2022-10-15T10:33:28.858Z,12.50
2022-10-15T10:35:56.263Z,12.15
2022-10-15T10:38:25.006Z,12.07
2022-10-15T10:40:54.098Z,12.10
2022-10-15T10:43:28.297Z,11.15
2022-10-15T10:46:02.876Z,11.23
2022-10-15T10:48:45.333Z,12.93
2022-10-15T10:51:18.245Z,12.10
2022-10-15T10:53:59.906Z,11.00
2022-10-15T10:56:41.936Z,9.60
2022-10-15T10:59:40.654Z,9.55
2022-10-15T11:02:12.336Z,9.05
2022-10-15T11:04:40.237Z,8.65
2022-10-15T11:07:18.139Z,8.50
2022-10-15T11:10:06.345Z,8.80
2022-10-15T11:12:39.901Z,10.55
2022-10-15T11:15:25.452Z,8.32
2022-10-15T11:18:01.634Z,9.13
2022-10-15T11:20:53.200Z,9.13
2022-10-15T11:23:58.705Z,8.43
2022-10-15T11:26:58.718Z,7.95
2022-10-15T11:29:51.198Z,8.38
2022-10-15T11:32:26.094Z,7.38
2022-10-15T11:35:34.571Z,7.93
2022-10-15T11:38:13.522Z,7.13
2022-10-15T11:40:57.189Z,6.32
2022-10-15T11:43:32.797Z,7.05
2022-10-15T11:46:15.790Z,6.22
2022-10-15T11:49:14.826Z,5.32
2022-10-15T11:52:19.594Z,8.73
2022-10-15T11:54:52.619Z,8.52
2022-10-15T11:57:21.396Z,6.13
2022-10-15T11:59:56.306Z,7.57
2022-10-15T12:02:41.733Z,6.10
2022-10-15T12:05:27.741Z,6.10
2022-10-15T12:07:55.750Z,12.68
2022-10-15T12:10:25.995Z,5.80
2022-10-15T12:13:10.229Z,5.50
2022-10-15T12:16:03.656Z,5.07
2022-10-15T12:18:38.885Z,5.97
2022-10-15T12:21:40.760Z,15.88
2022-10-15T12:24:47.624Z,7.43
2022-10-15T12:27:20.999Z,6.07
2022-10-15T12:29:50.935Z,5.72
2022-10-15T12:32:26.345Z,5.32
2022-10-15T12:34:58.765Z,5.88
2022-10-15T12:37:28.558Z,5.25
2022-10-15T12:42:31.972Z,6.40
2022-10-15T12:45:00.905Z,5.82
2022-10-15T12:47:46.393Z,5.60
2022-10-15T12:50:27.965Z,5.72
2022-10-15T12:53:04.936Z,5.80
2022-10-15T12:55:38.810Z,5.60
2022-10-15T12:58:41.296Z,4.32
2022-10-15T13:01:14.195Z,3.95
2022-10-15T13:03:50.471Z,3.15
2022-10-15T13:06:23.242Z,2.65
2022-10-15T13:09:19.897Z,2.67
2022-10-15T13:11:48.588Z,2.33
2022-10-15T13:14:21.316Z,2.50
2022-10-15T13:16:50.537Z,2.80
2022-10-15T13:19:24.104Z,2.67
2022-10-15T13:22:03.271Z,3.13
2022-10-15T13:24:39.857Z,3.47
2022-10-15T13:27:30.993Z,2.65
2022-10-15T13:30:01.873Z,1.70
2022-10-15T13:32:31.857Z,2.03
2022-10-15T13:37:35.090Z,1.48
2022-10-15T13:40:07.506Z,1.92
2022-10-15T13:42:35.655Z,1.50
2022-10-15T13:45:05.884Z,1.92
2022-10-15T13:47:38.235Z,1.95
2022-10-15T13:50:18.211Z,1.90
2022-10-15T13:52:51.054Z,2.13
2022-10-15T13:55:39.543Z,1.50
2022-10-15T13:58:16.153Z,2.00
2022-10-15T14:00:43.939Z,1.90
2022-10-15T14:03:17.090Z,2.10
2022-10-15T14:05:46.113Z,1.85
2022-10-15T14:08:19.628Z,2.10
2022-10-15T14:10:47.237Z,1.92
2022-10-15T14:13:14.015Z,2.00
2022-10-15T14:15:48.576Z,1.85
2022-10-15T14:18:18.527Z,1.42
2022-10-15T14:20:49.604Z,1.40
2022-10-15T14:23:27.766Z,1.20
2022-10-15T14:26:02.024Z,1.38
2022-10-15T14:28:31.793Z,1.73
2022-10-15T14:33:41.220Z,1.70
2022-10-15T14:36:13.103Z,1.38
2022-10-15T14:38:42.178Z,2.10
2022-10-15T14:41:26.123Z,1.83
2022-10-15T14:44:05.047Z,2.40
2022-10-15T14:46:41.512Z,2.20
2022-10-15T14:49:25.995Z,1.77
2022-10-15T14:52:06.163Z,3.45
2022-10-15T14:54:43.327Z,3.70
2022-10-15T14:57:41.378Z,2.47
2022-10-15T15:00:17.581Z,1.70
2022-10-15T15:02:45.181Z,1.75
2022-10-15T15:05:12.187Z,2.00
2022-10-15T15:07:39.913Z,2.08
2022-10-15T15:10:08.794Z,14.80
2022-10-15T15:12:38.491Z,1.40
2022-10-15T15:15:17.670Z,7.70
2022-10-15T15:17:48.755Z,2.22
2022-10-15T15:20:20.171Z,1.45
2022-10-15T15:22:50.544Z,3.03
2022-10-15T15:25:21.003Z,1.40
2022-10-15T15:27:48.286Z,1.73
2022-10-15T15:30:19.750Z,0.88
2022-10-15T15:32:48.125Z,1.60
2022-10-15T15:35:30.521Z,1.52
2022-10-15T15:37:57.236Z,1.40
2022-10-15T15:40:25.005Z,1.52
2022-10-15T15:42:51.803Z,2.10
2022-10-15T15:45:21.843Z,2.50
2022-10-15T15:47:48.888Z,1.70
2022-10-15T15:50:17.217Z,2.20
2022-10-15T15:52:44.491Z,2.13
2022-10-15T15:55:11.848Z,2.20
2022-10-15T15:57:39.251Z,1.85
2022-10-15T16:00:09.210Z,2.00
2022-10-15T16:02:38.804Z,1.60
2022-10-15T16:05:07.349Z,2.45
2022-10-15T16:07:34.939Z,2.50
2022-10-15T16:10:02.132Z,1.42
2022-10-15T16:12:28.909Z,1.65
2022-10-15T16:14:56.219Z,2.10
2022-10-15T16:17:24.521Z,2.40
2022-10-15T16:19:51.517Z,1.00
2022-10-15T16:22:18.253Z,1.25
2022-10-15T16:24:46.116Z,1.33
2022-10-15T16:27:13.065Z,0.90
2022-10-15T16:29:41.109Z,1.58
2022-10-15T16:32:07.926Z,1.35
2022-10-15T16:34:34.840Z,1.10
2022-10-15T16:37:02.031Z,0.93
2022-10-15T16:39:28.831Z,1.40
2022-10-15T16:41:56.200Z,1.48
2022-10-15T16:44:23.063Z,1.30
2022-10-15T16:46:50.265Z,1.75
2022-10-15T16:49:17.100Z,1.58
2022-10-15T16:51:44.454Z,1.50
2022-10-15T16:54:14.161Z,1.30
2022-10-15T16:56:41.494Z,1.58
2022-10-15T16:59:09.930Z,2.10
2022-10-15T17:01:37.048Z,1.67
2022-10-15T17:04:06.623Z,2.10
2022-10-15T17:06:33.729Z,1.50
2022-10-15T17:09:04.708Z,1.70
2022-10-15T17:11:36.600Z,2.38
2022-10-15T17:14:07.633Z,2.53
2022-10-15T17:16:39.649Z,2.13
2022-10-15T17:19:10.208Z,2.70
2022-10-15T17:21:38.215Z,2.00
2022-10-15T17:24:07.789Z,2.15
2022-10-15T17:26:39.457Z,2.80
2022-10-15T17:29:12.342Z,2.35
2022-10-15T17:31:39.866Z,1.80
2022-10-15T17:34:12.144Z,2.83
2022-10-15T17:36:45.681Z,3.05
2022-10-15T17:39:18.338Z,1.85
2022-10-15T17:41:46.835Z,2.13
2022-10-15T17:44:13.800Z,2.30
2022-10-15T17:46:41.584Z,2.63
2022-10-15T17:49:10.501Z,2.65
2022-10-15T17:51:40.855Z,2.80
2022-10-15T17:54:09.512Z,3.10
2022-10-15T17:56:42.288Z,2.80
2022-10-15T17:59:12.272Z,3.08
2022-10-15T18:04:29.771Z,2.92
2022-10-15T18:06:57.638Z,2.72
2022-10-15T18:09:28.906Z,2.75
2022-10-15T18:11:57.607Z,2.15
2022-10-15T18:14:25.228Z,18.08
2022-10-15T18:16:53.075Z,13.18
2022-10-15T18:19:22.492Z,8.73
2022-10-15T18:21:52.872Z,6.25
2022-10-15T18:24:22.373Z,6.18
2022-10-15T18:26:53.826Z,6.30
2022-10-15T18:29:23.916Z,5.95
2022-10-15T18:31:57.161Z,6.10
2022-10-15T18:34:25.923Z,5.45
2022-10-15T18:36:54.228Z,9.80
2022-10-15T18:39:23.523Z,7.78
2022-10-15T18:41:52.441Z,6.93
2022-10-15T18:44:22.002Z,6.30
2022-10-15T18:46:50.285Z,5.65
2022-10-15T18:49:19.156Z,7.15
2022-10-15T18:51:46.782Z,6.17
2022-10-15T18:54:14.681Z,6.50
2022-10-15T18:56:42.035Z,6.90
2022-10-15T18:59:09.150Z,5.45
2022-10-15T19:01:39.676Z,5.32
2022-10-15T19:04:10.129Z,5.75
2022-10-15T19:06:40.984Z,5.25
2022-10-15T19:09:11.716Z,4.82
2022-10-15T19:11:40.831Z,5.22
2022-10-15T19:14:08.003Z,4.90
2022-10-15T19:16:35.862Z,4.43
2022-10-15T19:19:04.447Z,3.55
2022-10-15T19:21:32.420Z,4.00
2022-10-15T19:24:00.327Z,3.40
2022-10-15T19:26:28.623Z,2.70
2022-10-15T19:28:57.655Z,2.95
2022-10-15T19:31:36.368Z,2.42
2022-10-15T19:34:03.657Z,3.50
2022-10-15T19:36:33.785Z,3.38
2022-10-15T19:39:02.671Z,4.30
2022-10-15T19:41:30.265Z,3.20
2022-10-15T19:43:57.646Z,3.15
2022-10-15T19:46:25.553Z,3.83
2022-10-15T19:48:52.482Z,3.65
2022-10-15T19:51:20.358Z,3.45
2022-10-15T19:53:52.065Z,5.20
2022-10-15T19:56:19.444Z,4.88
2022-10-15T19:58:46.407Z,4.97
2022-10-15T20:01:13.995Z,4.90
2022-10-15T20:03:41.578Z,6.82
2022-10-15T20:06:09.139Z,6.75
2022-10-15T20:08:37.695Z,7.60
2022-10-15T20:11:09.134Z,5.90
2022-10-15T20:13:36.591Z,5.63
2022-10-15T20:16:07.146Z,5.63
2022-10-15T20:18:35.129Z,6.18
2022-10-15T20:21:08.930Z,5.85
2022-10-15T20:23:38.169Z,4.72
2022-10-15T20:26:06.998Z,5.30
2022-10-15T20:28:38.606Z,6.43
2022-10-15T20:31:11.741Z,5.60
2022-10-15T20:33:38.917Z,5.13
2022-10-15T20:36:14.565Z,5.13
2022-10-15T20:38:42.446Z,5.15
2022-10-15T20:41:14.685Z,3.28
2022-10-15T20:43:43.035Z,2.70
2022-10-15T20:46:33.035Z,2.95
2022-10-15T20:49:09.425Z,3.10
2022-10-15T20:51:39.723Z,3.67
2022-10-15T20:54:07.257Z,2.70
2022-10-15T20:56:34.330Z,2.30
2022-10-15T20:59:01.410Z,2.08
2022-10-15T21:01:28.480Z,1.90
2022-10-15T21:03:55.421Z,2.33
2022-10-15T21:06:22.344Z,2.10
2022-10-15T21:08:51.399Z,2.45
2022-10-15T21:11:18.358Z,2.70
2022-10-15T21:13:47.304Z,2.75
2022-10-15T21:16:18.515Z,2.33
2022-10-15T21:18:45.517Z,2.00
2022-10-15T21:21:14.309Z,1.90
2022-10-15T21:23:42.263Z,2.30
2022-10-15T21:26:12.418Z,1.83
2022-10-15T21:28:39.708Z,2.03
2022-10-15T21:31:11.592Z,1.85
2022-10-15T21:33:39.533Z,4.15
2022-10-15T21:36:14.505Z,4.03
2022-10-15T21:38:42.083Z,3.50
2022-10-15T21:41:09.257Z,3.70
2022-10-15T21:43:36.169Z,3.33
2022-10-15T21:46:12.499Z,4.00
2022-10-15T21:48:40.582Z,2.83
2022-10-15T21:51:18.122Z,3.30
2022-10-15T21:53:45.263Z,3.30
2022-10-15T21:56:12.321Z,2.60
2022-10-15T21:58:40.279Z,2.90
2022-10-15T22:01:09.176Z,2.90
2022-10-15T22:03:36.009Z,2.37
2022-10-15T22:06:02.871Z,2.25
2022-10-15T22:08:30.263Z,2.60
2022-10-15T22:11:17.949Z,2.30
2022-10-15T22:13:46.955Z,2.38
2022-10-15T22:16:14.814Z,2.40
2022-10-15T22:18:41.935Z,3.20
2022-10-15T22:21:17.417Z,3.88
2022-10-15T22:23:49.962Z,3.75
2022-10-15T22:26:19.206Z,3.08
2022-10-15T22:28:46.961Z,3.25
2022-10-15T22:31:16.842Z,3.83
2022-10-15T22:33:45.297Z,3.70
2022-10-15T22:36:21.367Z,3.85
2022-10-15T22:38:52.985Z,3.90
2022-10-15T22:41:26.500Z,3.85
2022-10-15T22:43:55.685Z,2.83
2022-10-15T22:46:25.730Z,3.88
2022-10-15T22:51:26.964Z,2.90
2022-10-15T22:54:00.345Z,3.15
2022-10-15T22:56:28.607Z,3.60
2022-10-15T22:58:57.225Z,3.30
2022-10-15T23:03:37.718Z,3.65
2022-10-15T23:06:07.522Z,3.10
2022-10-15T23:11:19.842Z,3.30
2022-10-15T23:13:47.763Z,3.03
2022-10-15T23:16:17.008Z,4.22
2022-10-15T23:18:45.131Z,4.45
2022-10-15T23:21:15.085Z,3.22
2022-10-15T23:26:15.410Z,3.28
2022-10-15T23:28:43.357Z,3.17
2022-10-15T23:31:17.733Z,3.15
2022-10-15T23:33:45.424Z,3.20
2022-10-15T23:36:12.562Z,3.10
2022-10-15T23:38:39.298Z,3.40
2022-10-15T23:41:08.564Z,2.88
2022-10-15T23:43:35.312Z,3.00
2022-10-15T23:46:02.476Z,3.22
2022-10-15T23:48:29.255Z,3.25
2022-10-15T23:51:00.869Z,3.40
2022-10-15T23:53:31.890Z,2.70
2022-10-15T23:56:01.815Z,2.58
